Time;durP1;ratioP1;P1;durP2;ratioP2;P2;SDS_P1;SDS_P2;PMS_P1;PMS_P2;Temp;Humidity;BMP_temperature;BMP_pressure;BME280_temperature;BME280_humidity;BME280_pressure;Samples;Min_cycle;Max_cycle;Signal;HPM_P1;HPM_P2
2021/09/24 00:02:16;;;;;;;;;;;;;;;15.33;100.00;101296.50;5027511;28;19927;-88
2021/09/24 00:04:42;;;;;;;;;;;;;;;15.34;100.00;101297.31;5043339;28;20411;-87
2021/09/24 00:07:08;;;;;;;;;;;;;;;15.36;100.00;101287.13;5038362;28;19931;-88
2021/09/24 00:09:33;;;;;;;;;;;;;;;15.37;100.00;101295.09;5042215;28;19925;-89
2021/09/24 00:11:58;;;;;;;;;;;;;;;15.38;100.00;101272.34;5029472;28;19935;-87
2021/09/24 00:14:24;;;;;;;;;;;;;;;15.41;100.00;101281.97;5018511;28;19971;-87
2021/09/24 00:16:50;;;;;;;;;;;;;;;15.42;100.00;101275.50;5038067;28;19929;-89
2021/09/24 00:19:15;;;;;;;;;;;;;;;15.44;100.00;101273.44;5052899;28;19925;-88
2021/09/24 00:21:41;;;;;;;;;;;;;;;15.45;100.00;101268.84;5028436;28;19934;-88
2021/09/24 00:24:06;;;;;;;;;;;;;;;15.46;100.00;101262.41;5024842;28;19935;-89
2021/09/24 00:26:32;;;;;;;;;;;;;;;15.47;100.00;101264.09;5040424;28;19927;-89
2021/09/24 00:28:58;;;;;;;;;;;;;;;15.48;100.00;101258.47;5041571;28;20390;-88
2021/09/24 00:31:24;;;;;;;;;;;;;;;15.48;100.00;101254.91;5032905;28;19921;-89
2021/09/24 00:34:06;;;;;;;;;;;;;;;15.49;100.00;101252.00;5037302;28;19931;-88
2021/09/24 00:36:31;;;;;;;;;;;;;;;15.51;100.00;101254.53;5021523;28;19921;-90
2021/09/24 00:38:57;;;;;;;;;;;;;;;15.50;100.00;101250.97;5040684;28;19931;-89
2021/09/24 00:41:23;;;;;;;;;;;;;;;15.51;100.00;101247.25;5017794;28;19970;-89
2021/09/24 00:43:48;;;;;;;;;;;;;;;15.52;100.00;101239.94;5031756;28;19921;-89
2021/09/24 00:46:14;;;;;;;;;;;;;;;15.53;100.00;101244.31;5024493;28;19935;-89
2021/09/24 00:48:39;;;;;;;;;;;;;;;15.53;100.00;101238.91;5037805;28;19931;-88
2021/09/24 00:51:05;;;;;;;;;;;;;;;15.55;100.00;101237.66;5032687;28;20033;-89
2021/09/24 00:53:30;;;;;;;;;;;;;;;15.55;100.00;101228.72;5026071;28;20028;-89
2021/09/24 00:55:56;;;;;;;;;;;;;;;15.57;100.00;101229.34;5000286;28;19920;-87
2021/09/24 00:58:22;;;;;;;;;;;;;;;15.56;100.00;101225.81;5025005;28;19921;-89
2021/09/24 01:00:47;;;;;;;;;;;;;;;15.57;100.00;101222.06;5027796;28;19929;-88
2021/09/24 01:03:13;;;;;;;;;;;;;;;15.58;100.00;101222.88;5024441;28;19925;-88
2021/09/24 01:05:39;;;;;;;;;;;;;;;15.59;100.00;101224.59;5024468;28;22071;-88
2021/09/24 01:08:04;;;;;;;;;;;;;;;15.58;100.00;101222.88;5055265;28;21724;-88
2021/09/24 01:10:30;;;;;;;;;;;;;;;15.58;100.00;101223.72;5011591;28;20373;-89
2021/09/24 01:12:56;;;;;;;;;;;;;;;15.59;100.00;101221.88;5055556;28;19949;-88
2021/09/24 01:15:21;;;;;;;;;;;;;;;15.59;100.00;101224.59;5020336;28;20411;-89
2021/09/24 01:17:50;;;;;;;;;;;;;;;15.59;100.00;101228.13;5022480;28;19952;-89
2021/09/24 01:20:20;;;;;;;;;;;;;;;15.60;100.00;101226.25;5056062;28;20003;-89
2021/09/24 01:22:46;;;;;;;;;;;;;;;15.59;100.00;101220.00;5024601;28;19935;-89
2021/09/24 01:25:12;;;;;;;;;;;;;;;15.58;100.00;101218.28;5019211;28;19931;-88
2021/09/24 01:27:38;;;;;;;;;;;;;;;15.58;100.00;101212.88;5034456;28;20385;-89
2021/09/24 01:30:04;;;;;;;;;;;;;;;15.59;100.00;101219.16;5001840;28;19951;-89
2021/09/24 01:32:29;;;;;;;;;;;;;;;15.60;100.00;101221.66;5033896;28;19932;-88
2021/09/24 01:35:01;;;;;;;;;;;;;;;15.59;100.00;101208.31;5033007;28;19958;-90
2021/09/24 01:37:27;;;;;;;;;;;;;;;15.60;100.00;101215.41;5009790;28;19920;-90
2021/09/24 01:39:52;;;;;;;;;;;;;;;15.60;100.00;101215.41;5024648;28;19929;-88
2021/09/24 01:42:22;;;;;;;;;;;;;;;15.60;100.00;101218.94;5034654;28;19952;-90
2021/09/24 01:44:47;;;;;;;;;;;;;;;15.60;100.00;101218.94;5019984;28;19925;-88
2021/09/24 01:47:13;;;;;;;;;;;;;;;15.61;100.00;101217.06;5028815;28;20032;-88
2021/09/24 01:49:38;;;;;;;;;;;;;;;15.61;100.00;101211.66;5041020;28;19932;-88
2021/09/24 01:52:04;;;;;;;;;;;;;;;15.61;100.00;101217.06;5018414;28;19924;-89
2021/09/24 01:54:29;;;;;;;;;;;;;;;15.62;100.00;101221.47;5035452;28;19985;-89
2021/09/24 01:56:55;;;;;;;;;;;;;;;15.61;100.00;101217.06;5028057;28;19933;-89
2021/09/24 01:59:20;;;;;;;;;;;;;;;15.60;100.00;101212.69;5031912;28;19956;-89
2021/09/24 02:01:47;;;;;;;;;;;;;;;15.59;100.00;101206.44;5021227;28;20000;-90
2021/09/24 02:04:12;;;;;;;;;;;;;;;15.59;100.00;101211.84;5023001;28;20011;-89
2021/09/24 02:06:38;;;;;;;;;;;;;;;15.58;100.00;101207.47;5021126;28;19924;-87
2021/09/24 02:09:04;;;;;;;;;;;;;;;15.57;100.00;101203.09;5026000;28;20019;-89
2021/09/24 02:11:29;;;;;;;;;;;;;;;15.56;100.00;101193.28;5038126;28;20285;-88
2021/09/24 02:13:55;;;;;;;;;;;;;;;15.57;100.00;101194.94;5026024;28;19920;-88
2021/09/24 02:16:20;;;;;;;;;;;;;;;15.56;100.00;101196.00;5028564;28;19921;-90
2021/09/24 02:18:46;;;;;;;;;;;;;;;15.56;100.00;101187.03;5026480;28;19929;-91
2021/09/24 02:21:11;;;;;;;;;;;;;;;15.56;100.00;101181.63;5025756;28;21105;-89
2021/09/24 02:23:37;;;;;;;;;;;;;;;15.54;100.00;101180.97;5025509;28;19931;-87
2021/09/24 02:26:03;;;;;;;;;;;;;;;15.54;100.00;101180.97;5037584;28;19933;-90
2021/09/24 02:28:29;;;;;;;;;;;;;;;15.53;100.00;101176.56;5013107;28;20006;-89
2021/09/24 02:30:55;;;;;;;;;;;;;;;15.52;100.00;101167.59;5054109;28;19920;-89
2021/09/24 02:33:20;;;;;;;;;;;;;;;15.52;100.00;101173.03;5041101;28;19920;-89
2021/09/24 02:35:46;;;;;;;;;;;;;;;15.51;100.00;101162.41;5035454;28;19925;-89
2021/09/24 02:38:12;;;;;;;;;;;;;;;15.50;100.00;101172.38;5054723;28;19928;-88
2021/09/24 02:40:37;;;;;;;;;;;;;;;15.50;100.00;101163.41;5060151;28;19959;-89
2021/09/24 02:43:03;;;;;;;;;;;;;;;15.50;100.00;101166.13;5018642;28;20046;-89
2021/09/24 02:45:28;;;;;;;;;;;;;;;15.49;100.00;101169.88;5023690;28;19935;-89
2021/09/24 02:47:54;;;;;;;;;;;;;;;15.49;100.00;101169.88;5024854;28;19928;-88
2021/09/24 02:50:19;;;;;;;;;;;;;;;15.47;100.00;101151.09;5021097;28;19956;-88
2021/09/24 02:52:45;;;;;;;;;;;;;;;15.47;100.00;101161.09;5027709;28;20403;-90
2021/09/24 02:55:10;;;;;;;;;;;;;;;15.46;100.00;101162.16;5033999;28;20377;-88
2021/09/24 02:57:36;;;;;;;;;;;;;;;15.45;100.00;101166.72;5024706;28;20324;-89
2021/09/24 03:00:03;;;;;;;;;;;;;;;15.45;100.00;101176.72;5016620;28;19935;-88
2021/09/24 03:02:29;;;;;;;;;;;;;;;15.45;100.00;101165.88;5010389;28;20272;-89
2021/09/24 03:04:54;;;;;;;;;;;;;;;15.44;100.00;101173.19;5034442;28;19928;-90
2021/09/24 03:07:19;;;;;;;;;;;;;;;15.43;100.00;101171.50;5001934;28;20045;-90
2021/09/24 03:09:45;;;;;;;;;;;;;;;15.43;100.00;101162.53;5034971;28;20369;-89
2021/09/24 03:12:10;;;;;;;;;;;;;;;15.42;100.00;101163.56;5032203;28;19927;-89
2021/09/24 03:14:36;;;;;;;;;;;;;;;15.42;100.00;101161.69;5023512;28;20058;-89
2021/09/24 03:17:02;;;;;;;;;;;;;;;15.41;100.00;101168.16;5022068;28;20385;-89
2021/09/24 03:19:27;;;;;;;;;;;;;;;15.42;100.00;101166.28;5027924;28;20437;-89
2021/09/24 03:21:53;;;;;;;;;;;;;;;15.37;100.00;101161.44;5023029;28;19931;-90
2021/09/24 03:24:18;;;;;;;;;;;;;;;15.41;100.00;101170.03;5050771;28;19939;-89
2021/09/24 03:26:44;;;;;;;;;;;;;;;15.41;100.00;101172.75;5006097;28;19924;-89
2021/09/24 03:29:10;;;;;;;;;;;;;;;15.39;100.00;101165.63;5026394;28;19929;-89
2021/09/24 03:31:36;;;;;;;;;;;;;;;15.38;100.00;101163.97;5028546;28;20396;-89
2021/09/24 03:34:02;;;;;;;;;;;;;;;15.39;100.00;101162.91;5009293;28;19927;-89
2021/09/24 03:36:27;;;;;;;;;;;;;;;15.39;100.00;101162.09;5036354;28;20300;-89
2021/09/24 03:38:53;;;;;;;;;;;;;;;15.39;100.00;101162.91;5058118;28;19928;-90
2021/09/24 03:41:18;;;;;;;;;;;;;;;15.38;100.00;101153.13;5021091;28;20266;-88
2021/09/24 03:43:44;;;;;;;;;;;;;;;15.38;100.00;101155.84;5027088;28;19924;-89
2021/09/24 03:46:09;;;;;;;;;;;;;;;15.38;100.00;101160.44;5021358;28;20381;-89
2021/09/24 03:48:35;;;;;;;;;;;;;;;15.38;100.00;101155.84;5023804;28;19920;-89
2021/09/24 03:51:00;;;;;;;;;;;;;;;15.36;100.00;101160.63;5028750;28;19924;-88
2021/09/24 03:53:26;;;;;;;;;;;;;;;15.37;100.00;101170.44;5020625;28;19927;-88
2021/09/24 03:55:53;;;;;;;;;;;;;;;15.35;100.00;101161.66;5031036;28;19947;-88
2021/09/24 03:58:19;;;;;;;;;;;;;;;15.37;100.00;101161.44;5053674;28;19970;-89
2021/09/24 04:00:45;;;;;;;;;;;;;;;15.37;100.00;101175.00;5052431;28;19922;-90
2021/09/24 04:03:10;;;;;;;;;;;;;;;15.35;100.00;101167.09;5049137;28;19941;-90
2021/09/24 04:05:36;;;;;;;;;;;;;;;15.35;100.00;101153.53;5036223;28;19951;-88
2021/09/24 04:08:01;;;;;;;;;;;;;;;15.34;100.00;101151.84;5010706;28;19927;-90
2021/09/24 04:10:27;;;;;;;;;;;;;;;15.34;100.00;101151.00;5026445;28;19924;-90
2021/09/24 04:12:52;;;;;;;;;;;;;;;15.35;100.00;101156.25;5041856;28;19920;-87
2021/09/24 04:15:18;;;;;;;;;;;;;;;15.35;100.00;101155.41;5035866;28;19930;-87
2021/09/24 04:17:44;;;;;;;;;;;;;;;15.35;100.00;101145.41;5028705;28;19929;-89
2021/09/24 04:20:10;;;;;;;;;;;;;;;15.34;100.00;101149.13;5031014;28;20237;-87
2021/09/24 04:22:36;;;;;;;;;;;;;;;15.34;100.00;101151.84;5035772;28;19921;-89
2021/09/24 04:25:01;;;;;;;;;;;;;;;15.33;100.00;101149.34;5026377;28;19925;-90
2021/09/24 04:27:27;;;;;;;;;;;;;;;15.31;100.00;101157.66;5024022;28;19947;-87
2021/09/24 04:29:52;;;;;;;;;;;;;;;15.30;100.00;101161.41;5034795;28;19925;-88
2021/09/24 04:32:18;;;;;;;;;;;;;;;15.29;100.00;101151.59;5019930;28;19966;-89
2021/09/24 04:34:43;;;;;;;;;;;;;;;15.29;100.00;101157.00;5026054;28;20192;-89
2021/09/24 04:37:09;;;;;;;;;;;;;;;15.28;100.00;101146.38;5041376;28;20395;-89
2021/09/24 04:39:35;;;;;;;;;;;;;;;15.27;100.00;101144.69;5021137;28;20437;-87
2021/09/24 04:42:00;;;;;;;;;;;;;;;15.26;100.00;101138.44;5046070;28;19970;-90
2021/09/24 04:44:26;;;;;;;;;;;;;;;15.25;100.00;101158.47;5033765;28;19929;-90
2021/09/24 04:46:51;;;;;;;;;;;;;;;15.27;100.00;101156.41;5034591;28;20023;-90
2021/09/24 04:49:17;;;;;;;;;;;;;;;15.27;100.00;101155.53;5052268;28;19920;-90
2021/09/24 04:51:42;;;;;;;;;;;;;;;15.27;100.00;101155.53;5033770;28;19985;-88
2021/09/24 04:54:08;;;;;;;;;;;;;;;15.27;100.00;101158.25;5038276;28;20372;-89
2021/09/24 04:56:33;;;;;;;;;;;;;;;15.26;100.00;101160.13;5033341;28;20393;-89
2021/09/24 04:58:59;;;;;;;;;;;;;;;15.25;100.00;101161.16;5030962;28;19983;-89
2021/09/24 05:01:24;;;;;;;;;;;;;;;15.25;100.00;101154.91;5038382;28;19930;-89
2021/09/24 05:03:50;;;;;;;;;;;;;;;15.22;100.00;101142.59;5020907;28;19943;-89
2021/09/24 05:06:15;;;;;;;;;;;;;;;15.22;100.00;101152.59;5049082;28;19928;-90
2021/09/24 05:08:41;;;;;;;;;;;;;;;15.21;100.00;101146.31;5040667;28;20399;-89
2021/09/24 05:11:07;;;;;;;;;;;;;;;15.20;100.00;101147.38;5016692;28;19921;-89
2021/09/24 05:13:32;;;;;;;;;;;;;;;15.20;100.00;101149.25;5054962;28;21362;-89
2021/09/24 05:15:58;;;;;;;;;;;;;;;15.18;100.00;101144.00;5008701;28;20043;-90
2021/09/24 05:18:23;;;;;;;;;;;;;;;15.17;100.00;101148.59;5018105;28;19929;-88
2021/09/24 05:20:49;;;;;;;;;;;;;;;15.16;100.00;101146.06;5020025;28;19927;-87
2021/09/24 05:23:14;;;;;;;;;;;;;;;15.10;100.00;101133.31;5021737;28;19928;-88
2021/09/24 05:25:40;;;;;;;;;;;;;;;15.16;100.00;101140.66;5022887;28;20363;-90
2021/09/24 05:28:05;;;;;;;;;;;;;;;15.15;100.00;101142.53;5017584;28;19929;-89
2021/09/24 05:30:31;;;;;;;;;;;;;;;15.14;100.00;101140.88;5024016;28;19921;-88
2021/09/24 05:32:58;;;;;;;;;;;;;;;15.14;100.00;101140.03;5025731;28;19979;-87
2021/09/24 05:35:26;;;;;;;;;;;;;;;15.14;100.00;101140.88;5022253;28;20362;-91
2021/09/24 05:37:51;;;;;;;;;;;;;;;15.14;100.00;101140.03;5022791;28;20396;-89
2021/09/24 05:40:17;;;;;;;;;;;;;;;15.13;100.00;101141.88;5027226;28;19928;-88
2021/09/24 05:42:42;;;;;;;;;;;;;;;15.13;100.00;101143.75;5055603;28;19924;-90
2021/09/24 05:45:14;;;;;;;;;;;;;;;15.10;100.00;101136.03;5032288;28;19968;-89
2021/09/24 05:47:39;;;;;;;;;;;;;;;15.10;100.00;101128.75;5022864;28;19920;-89
2021/09/24 05:50:11;;;;;;;;;;;;;;;15.10;100.00;101126.03;5015745;28;19924;-88
2021/09/24 05:52:41;;;;;;;;;;;;;;;15.10;100.00;101123.31;5021908;28;19932;-89
2021/09/24 05:55:07;;;;;;;;;;;;;;;15.10;100.00;101128.75;5034362;28;19964;-89
2021/09/24 05:57:32;;;;;;;;;;;;;;;15.10;100.00;101125.19;5016720;28;20130;-89
2021/09/24 05:59:58;;;;;;;;;;;;;;;15.10;100.00;101122.50;5014938;28;19924;-88
2021/09/24 06:02:23;;;;;;;;;;;;;;;15.09;100.00;101126.25;5037754;28;19925;-89
2021/09/24 06:04:49;;;;;;;;;;;;;;;15.09;100.00;101121.66;5021392;28;20029;-89
2021/09/24 06:07:14;;;;;;;;;;;;;;;15.08;100.00;101122.72;5022860;28;20430;-90
2021/09/24 06:09:40;;;;;;;;;;;;;;;15.07;100.00;101121.00;5017321;28;19931;-89
2021/09/24 06:12:05;;;;;;;;;;;;;;;15.06;100.00;101122.06;5020327;28;20053;-88
2021/09/24 06:14:31;;;;;;;;;;;;;;;15.06;100.00;101121.22;5057037;28;19927;-88
2021/09/24 06:16:57;;;;;;;;;;;;;;;15.05;100.00;101120.38;5037513;28;19920;-88
2021/09/24 06:19:23;;;;;;;;;;;;;;;15.05;100.00;101123.06;5030480;28;19989;-89
2021/09/24 06:21:51;;;;;;;;;;;;;;;15.05;100.00;101119.53;5053314;28;19924;-89
2021/09/24 06:24:16;;;;;;;;;;;;;;;15.05;100.00;101122.25;5021503;28;19925;-89
2021/09/24 06:26:42;;;;;;;;;;;;;;;15.05;100.00;101123.06;5019793;28;20385;-88
2021/09/24 06:29:08;;;;;;;;;;;;;;;15.06;100.00;101118.53;5036765;28;19928;-89
2021/09/24 06:31:33;;;;;;;;;;;;;;;15.06;100.00;101118.53;5037236;28;20202;-89
2021/09/24 06:33:59;;;;;;;;;;;;;;;15.07;100.00;101120.19;5035452;28;19959;-87
2021/09/24 06:36:25;;;;;;;;;;;;;;;15.08;100.00;101120.00;5029767;28;19928;-88
2021/09/24 06:38:50;;;;;;;;;;;;;;;15.09;100.00;101116.25;5017469;28;20271;-87
2021/09/24 06:41:16;;;;;;;;;;;;;;;15.11;100.00;101121.44;5020557;28;19970;-89
2021/09/24 06:43:42;;;;;;;;;;;;;;;15.12;100.00;101118.56;5040590;28;20335;-88
2021/09/24 06:46:07;;;;;;;;;;;;;;;15.13;100.00;101122.09;5032323;28;20353;-88
2021/09/24 06:48:33;;;;;;;;;;;;;;;15.15;100.00;101120.03;5029896;28;20772;-89
2021/09/24 06:50:59;;;;;;;;;;;;;;;15.16;100.00;101114.44;5013948;28;19971;-88
2021/09/24 06:53:25;;;;;;;;;;;;;;;15.16;100.00;101116.28;5030496;28;20148;-89
2021/09/24 06:55:51;;;;;;;;;;;;;;;15.17;100.00;101112.56;5031953;28;20293;-88
2021/09/24 06:58:16;;;;;;;;;;;;;;;15.18;100.00;101103.38;5042644;28;19931;-89
2021/09/24 07:00:42;;;;;;;;;;;;;;;15.19;100.00;101115.91;5039781;28;19928;-89
2021/09/24 07:03:07;;;;;;;;;;;;;;;15.21;100.00;101121.13;5023349;28;19924;-89
2021/09/24 07:05:33;;;;;;;;;;;;;;;15.16;100.00;101098.19;5037047;28;20074;-87
2021/09/24 07:07:58;;;;;;;;;;;;;;;15.19;100.00;101115.91;5027592;28;19929;-90
2021/09/24 07:10:24;;;;;;;;;;;;;;;15.21;100.00;101121.94;5019597;28;19921;-89
2021/09/24 07:12:49;;;;;;;;;;;;;;;15.23;100.00;101122.59;5034843;28;19985;-89
2021/09/24 07:15:15;;;;;;;;;;;;;;;15.23;100.00;101122.59;5069187;28;20439;-90
2021/09/24 07:17:40;;;;;;;;;;;;;;;15.27;100.00;101129.31;5011512;28;20023;-89
2021/09/24 07:20:06;;;;;;;;;;;;;;;15.29;100.00;101129.09;4994048;28;20008;-88
2021/09/24 07:22:32;;;;;;;;;;;;;;;15.33;100.00;101127.66;4980787;28;19925;-87
2021/09/24 07:24:58;;;;;;;;;;;;;;;15.38;100.00;101131.44;4976021;28;19921;-89
2021/09/24 07:27:23;;;;;;;;;;;;;;;15.41;100.00;101126.69;4976274;28;19925;-90
2021/09/24 07:29:49;;;;;;;;;;;;;;;15.44;100.00;101124.41;4976964;28;19936;-90
2021/09/24 07:32:15;;;;;;;;;;;;;;;15.55;100.00;101126.53;4998361;28;19925;-90
2021/09/24 07:34:43;;;;;;;;;;;;;;;15.61;100.00;101133.03;4971274;28;20038;-90
2021/09/24 07:37:09;;;;;;;;;;;;;;;15.65;100.00;101131.63;4985959;28;20367;-91
2021/09/24 07:39:35;;;;;;;;;;;;;;;15.73;100.00;101134.19;4968769;28;19929;-88
2021/09/24 07:42:00;;;;;;;;;;;;;;;15.80;100.00;101140.50;4997537;28;19922;-88
2021/09/24 07:44:26;;;;;;;;;;;;;;;15.88;100.00;101138.63;4983089;28;20011;-90
2021/09/24 07:46:51;;;;;;;;;;;;;;;15.93;100.00;101138.84;4985161;28;19967;-91
2021/09/24 07:49:17;;;;;;;;;;;;;;;15.96;100.00;101141.19;4996629;28;19921;-90
2021/09/24 07:51:42;;;;;;;;;;;;;;;15.95;100.00;101132.19;4994428;28;19929;-89
2021/09/24 07:54:08;;;;;;;;;;;;;;;15.95;100.00;101125.94;4996689;28;21886;-89
2021/09/24 07:56:34;;;;;;;;;;;;;;;15.92;100.00;101129.91;4996690;28;19936;-88
2021/09/24 07:58:59;;;;;;;;;;;;;;;15.92;100.00;101131.78;4993056;28;19929;-89
2021/09/24 08:01:25;;;;;;;;;;;;;;;15.94;100.00;101138.66;4977162;28;20390;-88
2021/09/24 08:03:53;;;;;;;;;;;;;;;16.01;100.00;101130.56;4966320;28;20558;-86
2021/09/24 08:06:19;;;;;;;;;;;;;;;15.99;100.00;101128.06;4982095;28;19936;-88
2021/09/24 08:08:47;;;;;;;;;;;;;;;15.96;100.00;101128.47;4982737;28;19927;-88
2021/09/24 08:11:13;;;;;;;;;;;;;;;15.90;100.00;101128.41;4995647;28;20408;-88
2021/09/24 08:13:39;;;;;;;;;;;;;;;15.87;100.00;101128.81;4994370;28;19922;-89
2021/09/24 08:16:05;;;;;;;;;;;;;;;15.90;100.00;101131.13;4995326;28;19929;-88
2021/09/24 08:18:30;;;;;;;;;;;;;;;15.88;100.00;101135.91;4982518;28;19929;-88
2021/09/24 08:20:58;;;;;;;;;;;;;;;15.87;100.00;101131.53;4994955;28;20415;-88
2021/09/24 08:23:23;;;;;;;;;;;;;;;15.90;100.00;101136.56;4982836;28;19983;-88
2021/09/24 08:25:49;;;;;;;;;;;;;;;15.90;100.00;101137.38;4979019;28;19964;-89
2021/09/24 08:28:14;;;;;;;;;;;;;;;15.88;100.00;101144.06;4989223;28;20318;-88
2021/09/24 08:30:40;;;;;;;;;;;;;;;15.88;100.00;101141.34;4985818;28;19928;-89
2021/09/24 08:33:05;;;;;;;;;;;;;;;15.87;100.00;101140.50;4981049;28;20325;-88
2021/09/24 08:35:31;;;;;;;;;;;;;;;15.91;100.00;101138.25;5002255;28;19921;-89
2021/09/24 08:37:56;;;;;;;;;;;;;;;15.94;100.00;101135.13;5010289;28;19928;-89
2021/09/24 08:40:23;;;;;;;;;;;;;;;15.93;100.00;101137.00;4994720;28;19922;-89
2021/09/24 08:42:48;;;;;;;;;;;;;;;15.89;100.00;101134.91;4997315;28;19952;-89
2021/09/24 08:45:16;;;;;;;;;;;;;;;15.89;100.00;101143.03;4989229;28;20545;-88
2021/09/24 08:47:42;;;;;;;;;;;;;;;15.88;100.00;101133.19;5002322;28;19929;-90
2021/09/24 08:50:08;;;;;;;;;;;;;;;15.90;100.00;101137.38;5008888;28;20273;-88
2021/09/24 08:52:34;;;;;;;;;;;;;;;15.96;100.00;101139.31;5000599;28;19989;-89
2021/09/24 08:55:00;;;;;;;;;;;;;;;16.03;100.00;101139.31;4997464;28;19920;-88
2021/09/24 08:57:25;;;;;;;;;;;;;;;16.05;100.00;101137.25;4979343;28;19921;-88
2021/09/24 08:59:51;;;;;;;;;;;;;;;16.24;100.00;101136.47;5024255;28;19971;-90
2021/09/24 09:02:16;;;;;;;;;;;;;;;16.51;100.00;101139.25;5002808;28;19924;-89
2021/09/24 09:04:45;;;;;;;;;;;;;;;16.54;100.00;101138.88;4997340;28;19929;-89
2021/09/24 09:07:12;;;;;;;;;;;;;;;16.59;100.00;101132.81;5014927;28;19917;-89
2021/09/24 09:09:38;;;;;;;;;;;;;;;16.72;100.00;101127.38;4996116;28;20386;-90
2021/09/24 09:12:17;;;;;;;;;;;;;;;16.69;100.00;101133.25;4994072;28;19921;-90
2021/09/24 09:14:43;;;;;;;;;;;;;;;16.57;100.00;101132.19;5005569;28;19979;-89
2021/09/24 09:17:24;;;;;;;;;;;;;;;16.42;100.00;101138.63;4992169;28;19921;-90
2021/09/24 09:19:50;;;;;;;;;;;;;;;16.35;100.00;101139.63;4991150;28;19967;-90
2021/09/24 09:22:19;;;;;;;;;;;;;;;16.40;100.00;101140.69;5005348;28;19920;-89
2021/09/24 09:24:45;;;;;;;;;;;;;;;16.34;100.00;101140.69;5000745;28;20357;-89
2021/09/24 09:27:20;;;;;;;;;;;;;;;16.30;100.00;101139.41;5014963;28;19949;-90
2021/09/24 09:29:59;;;;;;;;;;;;;;;16.30;100.00;101147.56;5010463;28;19925;-88
2021/09/24 09:32:24;;;;;;;;;;;;;;;16.29;100.00;101151.31;4979594;28;19948;-89
2021/09/24 09:34:50;;;;;;;;;;;;;;;16.27;100.00;101143.38;4978098;28;20370;-89
2021/09/24 09:37:16;;;;;;;;;;;;;;;16.30;100.00;101152.97;4993935;28;19921;-90
2021/09/24 09:39:42;;;;;;;;;;;;;;;16.34;100.00;101152.38;4997581;28;19996;-90
2021/09/24 09:42:07;;;;;;;;;;;;;;;16.36;100.00;101149.47;4995154;28;20445;-90
2021/09/24 09:44:33;;;;;;;;;;;;;;;16.40;100.00;101151.56;4994485;28;19987;-90
2021/09/24 09:46:59;;;;;;;;;;;;;;;16.42;100.00;101154.91;5004156;28;19971;-89
2021/09/24 09:49:25;;;;;;;;;;;;;;;16.36;100.00;101153.03;5012176;28;19949;-90
2021/09/24 09:51:52;;;;;;;;;;;;;;;16.34;100.00;101152.38;4975327;28;19921;-90
2021/09/24 09:54:28;;;;;;;;;;;;;;;16.33;100.00;101158.03;4995920;28;20020;-91
2021/09/24 09:57:08;;;;;;;;;;;;;;;16.29;100.00;101149.44;4980613;28;19921;-91
2021/09/24 09:59:33;;;;;;;;;;;;;;;16.26;100.00;101150.69;5010376;28;19929;-91
2021/09/24 10:02:37;;;;;;;;;;;;;;;16.26;100.00;101156.09;4993210;28;19917;-90
2021/09/24 10:05:03;;;;;;;;;;;;;;;16.24;100.00;101154.63;4911273;29;20376;-89
2021/09/24 10:07:31;;;;;;;;;;;;;;;16.22;100.00;101146.72;4886976;29;19949;-92
2021/09/24 10:10:26;;;;;;;;;;;;;;;16.27;100.00;101143.38;4942063;28;20003;-86
2021/09/24 10:12:52;;;;;;;;;;;;;;;16.34;100.00;101138.81;5014512;28;19964;-86
2021/09/24 10:15:18;;;;;;;;;;;;;;;16.42;100.00;101140.50;5012870;28;19984;-86
2021/09/24 10:17:43;;;;;;;;;;;;;;;16.55;100.00;101137.00;5002608;28;20355;-86
2021/09/24 10:20:10;;;;;;;;;;;;;;;16.86;100.00;101128.28;4993286;28;20478;-87
2021/09/24 10:22:35;;;;;;;;;;;;;;;17.10;100.00;101129.53;4994728;28;20326;-86
2021/09/24 10:25:01;;;;;;;;;;;;;;;17.07;100.00;101128.06;4996302;28;19921;-86
2021/09/24 10:27:30;;;;;;;;;;;;;;;17.00;100.00;101126.41;5006928;28;19917;-86
2021/09/24 10:30:06;;;;;;;;;;;;;;;16.90;100.00;101133.06;5000293;28;20290;-86
2021/09/24 10:32:32;;;;;;;;;;;;;;;16.85;100.00;101134.75;4984145;28;20279;-86
2021/09/24 10:35:05;;;;;;;;;;;;;;;16.90;100.00;101126.81;5015744;28;20355;-86
2021/09/24 10:37:32;;;;;;;;;;;;;;;16.88;100.00;101132.47;5003737;28;19920;-86
2021/09/24 10:39:59;;;;;;;;;;;;;;;16.95;100.00;101135.19;4999515;28;19948;-86
2021/09/24 10:42:24;;;;;;;;;;;;;;;16.99;100.00;101131.00;5013119;28;19925;-86
2021/09/24 10:45:09;;;;;;;;;;;;;;;17.00;100.00;101129.94;4993732;28;19932;-86
2021/09/24 10:47:48;;;;;;;;;;;;;;;17.12;100.00;101122.84;5028225;28;20369;-86
2021/09/24 10:50:37;;;;;;;;;;;;;;;17.20;100.00;101120.94;5018355;28;19917;-86
2021/09/24 10:53:14;;;;;;;;;;;;;;;17.16;100.00;101120.53;4967427;28;20434;-86
2021/09/24 10:55:42;;;;;;;;;;;;;;;17.23;100.00;101115.13;5034215;28;19917;-86
2021/09/24 10:58:13;;;;;;;;;;;;;;;17.55;100.00;101108.75;5033711;28;19928;-86
2021/09/24 11:00:38;;;;;;;;;;;;;;;17.91;100.00;101107.41;4991108;28;19928;-86
2021/09/24 11:03:11;;;;;;;;;;;;;;;17.93;100.00;101101.75;4994726;28;19925;-86
2021/09/24 11:05:52;;;;;;;;;;;;;;;18.10;100.00;101102.94;4994195;28;19931;-86
2021/09/24 11:08:41;;;;;;;;;;;;;;;17.90;100.00;101096.75;5030834;28;19976;-87
2021/09/24 11:11:12;;;;;;;;;;;;;;;17.74;100.00;101090.72;4998188;28;20301;-88
2021/09/24 11:13:41;;;;;;;;;;;;;;;17.76;100.00;101090.50;5005523;28;20008;-86
2021/09/24 11:16:08;;;;;;;;;;;;;;;17.97;100.00;101087.50;5012833;28;19917;-87
2021/09/24 11:18:54;;;;;;;;;;;;;;;18.14;100.00;101093.28;4991207;28;19921;-86
2021/09/24 11:21:19;;;;;;;;;;;;;;;18.33;100.00;101093.38;5004323;28;19974;-87
2021/09/24 11:23:46;;;;;;;;;;;;;;;18.48;100.00;101099.34;4990168;28;20014;-87
2021/09/24 11:26:12;;;;;;;;;;;;;;;18.73;99.40;101096.66;4984035;28;19921;-86
2021/09/24 11:28:38;;;;;;;;;;;;;;;18.98;98.07;101098.59;5011441;28;19913;-86
2021/09/24 11:31:04;;;;;;;;;;;;;;;18.94;97.25;101103.63;5010821;28;19921;-86
2021/09/24 11:33:40;;;;;;;;;;;;;;;19.01;97.83;101092.69;5013781;28;19925;-87
2021/09/24 11:36:06;;;;;;;;;;;;;;;18.85;98.38;101099.53;5015699;28;19946;-86
2021/09/24 11:38:31;;;;;;;;;;;;;;;18.64;99.41;101098.81;4994370;28;20413;-86
2021/09/24 11:40:57;;;;;;;;;;;;;;;18.41;100.00;101104.00;4979332;28;20299;-87
2021/09/24 11:43:29;;;;;;;;;;;;;;;18.28;100.00;101102.19;5002437;28;19923;-87
2021/09/24 11:45:56;;;;;;;;;;;;;;;18.15;100.00;101108.56;5015720;28;20023;-87
2021/09/24 11:48:28;;;;;;;;;;;;;;;17.94;100.00;101111.56;5010544;28;19923;-87
2021/09/24 11:50:54;;;;;;;;;;;;;;;17.90;100.00;101108.47;5030711;28;19983;-87
2021/09/24 11:53:19;;;;;;;;;;;;;;;17.87;100.00;101108.06;5015538;28;19921;-87
2021/09/24 11:55:45;;;;;;;;;;;;;;;17.83;100.00;101107.66;5012761;28;20379;-87
2021/09/24 11:58:26;;;;;;;;;;;;;;;17.87;100.00;101099.91;5013066;28;19921;-87
2021/09/24 12:00:55;;;;;;;;;;;;;;;17.84;100.00;101106.63;5002553;28;19975;-87
2021/09/24 12:03:25;;;;;;;;;;;;;;;17.74;100.00;101101.59;4976558;28;19928;-87
2021/09/24 12:06:14;;;;;;;;;;;;;;;17.64;100.00;101103.91;4996710;28;20003;-87
2021/09/24 12:08:45;;;;;;;;;;;;;;;17.67;100.00;101108.91;5025649;28;20033;-86
2021/09/24 12:11:13;;;;;;;;;;;;;;;17.67;100.00;101108.09;4997868;28;19928;-87
2021/09/24 12:13:46;;;;;;;;;;;;;;;17.59;100.00;101095.56;4998681;28;20286;-86
2021/09/24 12:16:15;;;;;;;;;;;;;;;17.49;100.00;101096.03;4981009;28;19925;-86
2021/09/24 12:18:47;;;;;;;;;;;;;;;17.41;100.00;101107.13;4997753;28;19921;-87
2021/09/24 12:21:14;;;;;;;;;;;;;;;17.45;100.00;101099.38;4982168;28;20396;-86
2021/09/24 12:23:40;;;;;;;;;;;;;;;17.53;100.00;101094.53;4982360;28;20121;-86
2021/09/24 12:26:10;;;;;;;;;;;;;;;17.54;100.00;101107.09;4994958;28;19927;-87
2021/09/24 12:28:36;;;;;;;;;;;;;;;17.52;100.00;101108.38;5005166;28;19921;-86